| time (UTC) | temp C | wind direction | speed KPH | gust KPH | rain 1hr cm | rain 24hr cm | rain mn cm | humidity % | barometer mb |
| 20260507074554 | 10 | 233 | 6.4 | 12.9 | 0.00 | 0.08 | 0.08 | 97 | 1006.7 |
| 20260507073057 | 10 | 205 | 11.3 | 12.9 | 0.00 | 0.08 | 0.08 | 97 | 1006.8 |
| 20260507071551 | 10 | 206 | 11.3 | 16.1 | 0.00 | 0.08 | 0.08 | 97 | 1007.0 |
| 20260507064550 | 11 | 229 | 14.5 | 19.3 | 0.00 | 0.08 | 0.08 | 97 | 1007.3 |
| 20260507063053 | 11 | 236 | 11.3 | 16.1 | 0.00 | 0.08 | 0.08 | 97 | 1007.1 |
| 20260507061546 | 11 | 244 | 12.9 | 20.9 | 0.00 | 0.08 | 0.08 | 97 | 1007.3 |
| 20260507054544 | 11 | 237 | 9.7 | 17.7 | 0.00 | 0.08 | 0.08 | 97 | 1008.1 |
| 20260507053044 | 11 | 218 | 8.0 | 19.3 | 0.00 | 0.08 | 0.08 | 97 | 1007.8 |
| 20260507051542 | 11 | 214 | 12.9 | 22.5 | 0.00 | 0.08 | 0.08 | 97 | 1008.1 |
| 20260507044550 | 11 | 216 | 20.9 | 32.2 | 0.00 | 0.08 | 0.08 | 97 | 1008.3 |
| 20260507043037 | 11 | 215 | 20.9 | 30.6 | 0.00 | 0.08 | 0.08 | 96 | 1008.3 |
| 20260507041535 | 12 | 212 | 14.5 | 25.7 | 0.00 | 0.08 | 0.08 | 96 | 1008.4 |
| 20260507034539 | 12 | 229 | 19.3 | 35.4 | 0.00 | 0.08 | 0.08 | 97 | 1008.7 |
| 20260507033041 | 12 | 230 | 20.9 | 33.8 | 0.00 | 0.08 | 0.08 | 96 | 1008.7 |
| 20260507031535 | 12 | 212 | 29.0 | 41.8 | 0.00 | 0.08 | 0.08 | 96 | 1008.5 |
| 20260507024535 | 12 | 229 | 20.9 | 32.2 | 0.00 | 0.08 | 0.08 | 96 | 1008.6 |
| 20260507023029 | 12 | 221 | 25.7 | 37.0 | 0.00 | 0.08 | 0.08 | 95 | 1008.8 |
| 20260507021544 | 12 | 219 | 25.7 | 35.4 | 0.00 | 0.08 | 0.08 | 95 | 1009.2 |
| 20260507014526 | 12 | 214 | 29.0 | 41.8 | 0.00 | 0.08 | 0.08 | 95 | 1009.4 |
| 20260507013032 | 12 | 224 | 29.0 | 41.8 | 0.00 | 0.08 | 0.08 | 95 | 1009.4 |
| 20260507011530 | 12 | 217 | 32.2 | 46.7 | 0.00 | 0.08 | 0.08 | 95 | 1009.4 |
| 20260507004524 | 13 | 217 | 38.6 | 53.1 | 0.00 | 0.08 | 0.08 | 95 | 1009.3 |
| 20260507003023 | 12 | 220 | 25.7 | 40.2 | 0.00 | 0.08 | 0.08 | 96 | 1009.4 |
| 20260507001523 | 12 | 233 | 29.0 | 40.2 | 0.00 | 0.08 | 0.08 | 95 | 1009.5 |
| 20260506234520 | 13 | 205 | 37.0 | 54.7 | 0.05 | 0.08 | 0.08 | 94 | 1009.3 |
| 20260506233019 | 13 | 217 | 29.0 | 41.8 | 0.05 | 0.08 | 0.08 | 95 | 1009.1 |
| 20260506231523 | 12 | 215 | 37.0 | 51.5 | 0.05 | 0.08 | 0.08 | 94 | 1009.2 |
| 20260506224516 | 12 | 210 | 33.8 | 46.7 | 0.03 | 0.03 | 0.03 | 93 | 1009.8 |
| 20260506223017 | 13 | 198 | 35.4 | 48.3 | 0.03 | 0.03 | 0.03 | 92 | 1009.9 |
| 20260506221511 | 13 | 214 | 38.6 | 57.9 | 0.03 | 0.03 | 0.03 | 89 | 1010.0 |
| 20260506214511 | 14 | 208 | 33.8 | 43.5 | 0.00 | 0.00 | 0.00 | 88 | 1009.9 |
| 20260506213007 | 13 | 198 | 35.4 | 43.5 | 0.00 | 0.00 | 0.00 | 88 | 1010.0 |
| 20260506211505 | 14 | 204 | 35.4 | 46.7 | 0.00 | 0.00 | 0.00 | 87 | 1010.1 |
| 20260506204505 | 14 | 179 | 35.4 | 46.7 | 0.00 | 0.00 | 0.00 | 86 | 1010.1 |
| 20260506203103 | 14 | 180 | 37.0 | 46.7 | 0.00 | 0.00 | 0.00 | 86 | 1010.4 |
| 20260506201507 | 14 | 188 | 40.2 | 51.5 | 0.00 | 0.00 | 0.00 | 86 | 1010.3 |
| 20260506194623 | 14 | 185 | 37.0 | 49.9 | 0.00 | 0.00 | 0.00 | 86 | 1010.7 |
| 20260506193059 | 14 | 213 | 35.4 | 48.3 | 0.00 | 0.00 | 0.00 | 86 | 1011.1 |
| 20260506191600 | 14 | 205 | 37.0 | 53.1 | 0.00 | 0.00 | 0.00 | 85 | 1011.0 |
| 20260506190203 | 14 | 189 | 38.6 | 51.5 | 0.00 | 0.00 | 0.00 | 85 | 1010.9 |
| 20260506184605 | 14 | 195 | 40.2 | 54.7 | 0.00 | 0.00 | 0.00 | 85 | 1011.1 |
| 20260506183103 | 14 | 202 | 38.6 | 49.9 | 0.00 | 0.00 | 0.00 | 85 | 1011.6 |
| 20260506181558 | 14 | 188 | 40.2 | 51.5 | 0.00 | 0.00 | 0.00 | 86 | 1011.9 |
| 20260506180151 | 14 | 212 | 38.6 | 51.5 | 0.00 | 0.00 | 0.00 | 85 | 1012.4 |
| 20260506174551 | 15 | 195 | 40.2 | 54.7 | 0.00 | 0.00 | 0.00 | 84 | 1012.6 |
| 20260506173055 | 15 | 205 | 41.8 | 51.5 | 0.00 | 0.00 | 0.00 | 84 | 1012.5 |
| 20260506171550 | 15 | 193 | 38.6 | 54.7 | 0.00 | 0.00 | 0.00 | 84 | 1012.6 |
| 20260506170147 | 15 | 210 | 41.8 | 56.3 | 0.00 | 0.00 | 0.00 | 85 | 1013.1 |
| 20260506164550 | 15 | 198 | 43.5 | 53.1 | 0.00 | 0.00 | 0.00 | 84 | 1013.2 |
| 20260506163043 | 15 | 188 | 43.5 | 56.3 | 0.00 | 0.00 | 0.00 | 84 | 1013.2 |
| 20260506161550 | 15 | 210 | 41.8 | 62.8 | 0.00 | 0.00 | 0.00 | 85 | 1013.4 |
| 20260506160142 | 15 | 214 | 41.8 | 54.7 | 0.00 | 0.00 | 0.00 | 84 | 1013.6 |
| 20260506154541 | 15 | 204 | 40.2 | 62.8 | 0.00 | 0.00 | 0.00 | 84 | 1013.8 |
| 20260506153040 | 15 | 216 | 46.7 | 57.9 | 0.00 | 0.00 | 0.00 | 84 | 1014.0 |
| 20260506151558 | 15 | 207 | 38.6 | 48.3 | 0.00 | 0.00 | 0.00 | 85 | 1014.0 |
| 20260506150139 | 15 | 207 | 37.0 | 51.5 | 0.00 | 0.00 | 0.00 | 85 | 1014.1 |
| 20260506144536 | 14 | 214 | 35.4 | 51.5 | 0.00 | 0.00 | 0.00 | 86 | 1013.9 |
| 20260506143045 | 15 | 208 | 40.2 | 53.1 | 0.00 | 0.00 | 0.00 | 85 | 1013.7 |
| 20260506141534 | 14 | 204 | 38.6 | 53.1 | 0.00 | 0.00 | 0.00 | 86 | 1013.7 |
| 20260506140134 | 15 | 206 | 46.7 | 57.9 | 0.00 | 0.00 | 0.00 | 85 | 1014.0 |
| 20260506134532 | 15 | 220 | 45.1 | 57.9 | 0.00 | 0.00 | 0.00 | 85 | 1014.0 |
| 20260506133031 | 15 | 182 | 43.5 | 53.1 | 0.00 | 0.00 | 0.00 | 85 | 1014.0 |
| 20260506131529 | 14 | 204 | 40.2 | 53.1 | 0.00 | 0.00 | 0.00 | 86 | 1013.9 |
| 20260506130143 | 14 | 199 | 40.2 | 49.9 | 0.00 | 0.00 | 0.00 | 86 | 1013.8 |
| 20260506124526 | 14 | 229 | 37.0 | 53.1 | 0.00 | 0.00 | 0.00 | 86 | 1014.0 |
| 20260506123025 | 14 | 191 | 41.8 | 53.1 | 0.00 | 0.00 | 0.00 | 87 | 1013.8 |
| 20260506121525 | 13 | 216 | 38.6 | 48.3 | 0.00 | 0.00 | 0.00 | 88 | 1014.0 |
| 20260506120122 | 13 | 205 | 38.6 | 48.3 | 0.00 | 0.00 | 0.00 | 89 | 1014.2 |
| 20260506114530 | 13 | 207 | 37.0 | 48.3 | 0.00 | 0.00 | 0.00 | 89 | 1014.3 |
| 20260506113021 | 13 | 208 | 40.2 | 46.7 | 0.00 | 0.00 | 0.00 | 89 | 1014.2 |
| 20260506111520 | 13 | 211 | 38.6 | 48.3 | 0.00 | 0.00 | 0.00 | 88 | 1014.2 |
| 20260506110119 | 13 | 207 | 38.6 | 51.5 | 0.00 | 0.00 | 0.00 | 89 | 1014.0 |
| 20260506104518 | 13 | 217 | 33.8 | 43.5 | 0.00 | 0.00 | 0.00 | 90 | 1014.0 |
| 20260506103019 | 13 | 221 | 30.6 | 40.2 | 0.00 | 0.00 | 0.00 | 90 | 1014.1 |
| 20260506101532 | 13 | 212 | 29.0 | 41.8 | 0.00 | 0.00 | 0.00 | 91 | 1014.0 |
| 20260506100118 | 12 | 229 | 32.2 | 40.2 | 0.00 | 0.00 | 0.00 | 92 | 1014.2 |
| 20260506094518 | 12 | 217 | 30.6 | 40.2 | 0.00 | 0.00 | 0.00 | 92 | 1014.2 |
| 20260506093016 | 12 | 199 | 29.0 | 35.4 | 0.00 | 0.00 | 0.00 | 92 | 1014.3 |
| 20260506091520 | 12 | 224 | 29.0 | 37.0 | 0.00 | 0.00 | 0.00 | 92 | 1014.2 |
| 20260506090115 | 12 | 203 | 29.0 | 38.6 | 0.00 | 0.00 | 0.00 | 92 | 1014.2 |
| 20260506084519 | 12 | 212 | 29.0 | 43.5 | 0.00 | 0.00 | 0.00 | 92 | 1014.4 |
| 20260506083013 | 12 | 217 | 29.0 | 40.2 | 0.00 | 0.00 | 0.00 | 92 | 1014.4 |
| 20260506081614 | 12 | 219 | 24.1 | 33.8 | 0.00 | 0.00 | 0.00 | 93 | 1014.6 |
| 20260506080112 | 12 | 207 | 30.6 | 40.2 | 0.00 | 0.00 | 0.00 | 93 | 1014.5 |